Time;durP1;ratioP1;P1;durP2;ratioP2;P2;SDS_P1;SDS_P2;PMS_P1;PMS_P2;Temp;Humidity;BMP_temperature;BMP_pressure;BME280_temperature;BME280_humidity;BME280_pressure;Samples;Min_cycle;Max_cycle;Signal;HPM_P1;HPM_P2
2023/01/03 00:01:36;;;;;;;;;;;;;;;;;;5044723;28;19970;-59
2023/01/03 00:04:03;;;;;;;;;;;;;;;;;;5044617;28;20542;-59
2023/01/03 00:06:29;;;;;;;;;;;;;;;;;;5043605;28;19952;-56
2023/01/03 00:08:55;;;;;;;;;;;;;;;;;;5045227;28;20367;-59
2023/01/03 00:12:22;;;;;;;;;;;;;;;;;;5044692;28;20553;-60
2023/01/03 00:14:08;;;;;;;;;;;;;;;;;;5044183;28;19925;-59
2023/01/03 00:16:34;;;;;;;;;;;;;;;;;;5044473;28;19925;-59
2023/01/03 00:19:00;;;;;;;;;;;;;;;;;;5044432;28;19925;-59
2023/01/03 00:21:26;;;;;;;;;;;;;;;;;;5044484;28;19925;-59
2023/01/03 00:23:52;;;;;;;;;;;;;;;;;;5044209;28;19925;-60
2023/01/03 00:26:18;;;;;;;;;;;;;;;;;;5044302;28;20466;-58
2023/01/03 00:28:44;;;;;;;;;;;;;;;;;;5029385;28;19925;-59
2023/01/03 00:31:10;;;;;;;;;;;;;;;;;;5048534;28;19935;-58
2023/01/03 00:33:36;;;;;;;;;;;;;;;;;;5047998;28;19960;-58
2023/01/03 00:36:02;;;;;;;;;;;;;;;;;;5048240;28;20428;-59
2023/01/03 00:38:28;;;;;;;;;;;;;;;;;;5047957;28;20020;-57
2023/01/03 00:40:54;;;;;;;;;;;;;;;;;;5048974;28;19999;-60
2023/01/03 00:43:27;;;;;;;;;;;;;;;;;;5048000;28;19988;-59
2023/01/03 00:45:53;;;;;;;;;;;;;;;;;;5030088;28;20007;-59
2023/01/03 00:48:19;;;;;;;;;;;;;;;;;;5047616;28;20019;-59
2023/01/03 00:50:45;;;;;;;;;;;;;;;;;;5047914;28;20350;-60
2023/01/03 00:53:11;;;;;;;;;;;;;;;;;;5047491;28;19924;-59
2023/01/03 00:55:37;;;;;;;;;;;;;;;;;;5047930;28;19995;-59
2023/01/03 00:58:03;;;;;;;;;;;;;;;;;;5029616;28;20409;-59
2023/01/03 01:00:29;;;;;;;;;;;;;;;;;;5047855;28;19932;-57
2023/01/03 01:02:55;;;;;;;;;;;;;;;;;;5047065;28;19932;-59
2023/01/03 01:05:21;;;;;;;;;;;;;;;;;;5048780;28;20379;-59
2023/01/03 01:07:47;;;;;;;;;;;;;;;;;;5050124;28;19971;-59
2023/01/03 01:10:13;;;;;;;;;;;;;;;;;;5051830;28;20067;-59
2023/01/03 01:12:39;;;;;;;;;;;;;;;;;;5033036;28;19932;-59
2023/01/03 01:15:05;;;;;;;;;;;;;;;;;;5047933;28;19928;-60
2023/01/03 01:17:31;;;;;;;;;;;;;;;;;;5050597;28;20397;-59
2023/01/03 01:19:57;;;;;;;;;;;;;;;;;;5050285;28;19933;-59
2023/01/03 01:22:23;;;;;;;;;;;;;;;;;;5050132;28;20011;-58
2023/01/03 01:24:50;;;;;;;;;;;;;;;;;;5050773;28;19970;-59
2023/01/03 01:27:16;;;;;;;;;;;;;;;;;;5047484;28;20493;-59
2023/01/03 01:29:42;;;;;;;;;;;;;;;;;;5050863;28;19951;-57
2023/01/03 01:32:08;;;;;;;;;;;;;;;;;;5047354;28;20649;-59
2023/01/03 01:34:34;;;;;;;;;;;;;;;;;;5048922;28;19925;-58
2023/01/03 01:37:00;;;;;;;;;;;;;;;;;;5047472;28;20334;-59
2023/01/03 01:39:26;;;;;;;;;;;;;;;;;;5049659;28;19924;-59
2023/01/03 01:44:37;;;;;;;;;;;;;;;;;;5048468;28;19976;-59
2023/01/03 01:47:03;;;;;;;;;;;;;;;;;;5049778;28;20060;-59
2023/01/03 01:49:29;;;;;;;;;;;;;;;;;;5047585;28;20019;-59
2023/01/03 01:51:55;;;;;;;;;;;;;;;;;;5046711;28;20359;-59
2023/01/03 01:54:21;;;;;;;;;;;;;;;;;;5046955;28;19929;-59
2023/01/03 01:56:47;;;;;;;;;;;;;;;;;;5050211;28;19924;-59
2023/01/03 01:59:13;;;;;;;;;;;;;;;;;;5045718;28;19940;-59
2023/01/03 02:01:39;;;;;;;;;;;;;;;;;;5046499;28;20020;-60
2023/01/03 02:04:05;;;;;;;;;;;;;;;;;;5025271;28;20279;-60
2023/01/03 02:06:31;;;;;;;;;;;;;;;;;;5136361;22;20042;-57
2023/01/03 02:08:57;;;;;;;;;;;;;;;;;;5088051;28;20388;-56
2023/01/03 02:11:23;;;;;;;;;;;;;;;;;;5078002;28;19925;-57
2023/01/03 02:13:49;;;;;;;;;;;;;;;;;;5083054;28;19928;-55
2023/01/03 02:16:15;;;;;;;;;;;;;;;;;;5073808;28;19925;-57
2023/01/03 02:18:41;;;;;;;;;;;;;;;;;;5087374;28;19924;-56
2023/01/03 02:21:07;;;;;;;;;;;;;;;;;;5074010;28;19928;-57
2023/01/03 02:23:33;;;;;;;;;;;;;;;;;;5066560;28;19931;-57
2023/01/03 02:25:59;;;;;;;;;;;;;;;;;;5077682;28;19935;-55
2023/01/03 02:28:25;;;;;;;;;;;;;;;;;;5088225;28;19924;-56
2023/01/03 02:30:51;;;;;;;;;;;;;;;;;;5078825;28;19994;-56
2023/01/03 02:33:17;;;;;;;;;;;;;;;;;;5066816;28;19925;-57
2023/01/03 02:35:43;;;;;;;;;;;;;;;;;;5071414;28;19925;-56
2023/01/03 02:38:09;;;;;;;;;;;;;;;;;;5066269;28;19999;-56
2023/01/03 02:40:35;;;;;;;;;;;;;;;;;;5066099;28;20013;-56
2023/01/03 02:43:01;;;;;;;;;;;;;;;;;;5077201;28;20582;-56
2023/01/03 02:45:27;;;;;;;;;;;;;;;;;;5084874;28;19978;-57
2023/01/03 02:47:53;;;;;;;;;;;;;;;;;;5066519;28;19932;-57
2023/01/03 02:50:19;;;;;;;;;;;;;;;;;;5066236;28;19929;-57
2023/01/03 02:52:45;;;;;;;;;;;;;;;;;;5070555;28;19931;-57
2023/01/03 02:55:11;;;;;;;;;;;;;;;;;;5075970;28;19924;-56
2023/01/03 02:57:37;;;;;;;;;;;;;;;;;;5067099;28;19932;-55
2023/01/03 03:00:06;;;;;;;;;;;;;;;;;;5066561;28;19924;-56
2023/01/03 03:02:32;;;;;;;;;;;;;;;;;;5067177;28;20285;-53
2023/01/03 03:04:58;;;;;;;;;;;;;;;;;;5078053;28;19929;-54
2023/01/03 03:07:24;;;;;;;;;;;;;;;;;;5065677;28;19928;-55
2023/01/03 03:15:21;;;;;;;;;;;;;;;;;;5070194;28;19931;-56
2023/01/03 03:17:47;;;;;;;;;;;;;;;;;;5085242;28;19943;-57
2023/01/03 03:25:43;;;;;;;;;;;;;;;;;;5080417;28;19994;-57
2023/01/03 03:30:54;;;;;;;;;;;;;;;;;;5079677;28;20391;-56
2023/01/03 03:33:20;;;;;;;;;;;;;;;;;;5080799;28;20605;-56
2023/01/03 03:35:46;;;;;;;;;;;;;;;;;;5082028;28;19940;-57
2023/01/03 03:38:12;;;;;;;;;;;;;;;;;;5081980;28;19924;-54
2023/01/03 03:46:07;;;;;;;;;;;;;;;;;;5085347;28;19969;-55
2023/01/03 03:49:36;;;;;;;;;;;;;;;;;;5079516;28;20426;-56
2023/01/03 03:51:19;;;;;;;;;;;;;;;;;;5083377;28;19985;-57
2023/01/03 03:53:45;;;;;;;;;;;;;;;;;;5078656;28;19924;-57
2023/01/03 03:56:11;;;;;;;;;;;;;;;;;;5066482;28;19963;-57
2023/01/03 03:58:37;;;;;;;;;;;;;;;;;;5079236;28;19963;-57
2023/01/03 04:01:03;;;;;;;;;;;;;;;;;;5083151;28;19939;-55
2023/01/03 04:03:29;;;;;;;;;;;;;;;;;;5082155;28;19928;-54
2023/01/03 04:05:55;;;;;;;;;;;;;;;;;;5063880;28;20407;-56
2023/01/03 04:08:21;;;;;;;;;;;;;;;;;;5080848;28;19970;-57
2023/01/03 04:10:47;;;;;;;;;;;;;;;;;;5080634;28;19925;-54
2023/01/03 04:13:13;;;;;;;;;;;;;;;;;;5084492;28;20400;-56
2023/01/03 04:15:39;;;;;;;;;;;;;;;;;;5081878;28;19931;-55
2023/01/03 04:18:05;;;;;;;;;;;;;;;;;;5084229;28;19921;-56
2023/01/03 04:20:31;;;;;;;;;;;;;;;;;;5080749;28;19924;-57
2023/01/03 04:22:57;;;;;;;;;;;;;;;;;;5079966;28;19927;-54
2023/01/03 04:25:23;;;;;;;;;;;;;;;;;;5084325;28;19946;-57
2023/01/03 04:27:49;;;;;;;;;;;;;;;;;;5081712;28;20035;-56
2023/01/03 04:30:15;;;;;;;;;;;;;;;;;;5082354;28;20003;-56
2023/01/03 04:32:41;;;;;;;;;;;;;;;;;;5081161;28;20343;-57
2023/01/03 04:35:07;;;;;;;;;;;;;;;;;;5081571;28;19932;-57
2023/01/03 04:37:33;;;;;;;;;;;;;;;;;;5083283;28;19935;-57
2023/01/03 04:39:59;;;;;;;;;;;;;;;;;;5080667;28;19928;-57
2023/01/03 04:45:09;;;;;;;;;;;;;;;;;;5079091;28;19924;-57
2023/01/03 04:47:35;;;;;;;;;;;;;;;;;;5083817;28;19924;-55
2023/01/03 04:50:01;;;;;;;;;;;;;;;;;;5079510;28;19947;-56
2023/01/03 04:52:27;;;;;;;;;;;;;;;;;;5081266;28;20292;-57
2023/01/03 04:54:53;;;;;;;;;;;;;;;;;;5084126;28;19924;-57
2023/01/03 04:57:19;;;;;;;;;;;;;;;;;;5079019;28;19928;-57
2023/01/03 04:59:45;;;;;;;;;;;;;;;;;;5084247;28;19927;-56
2023/01/03 05:02:11;;;;;;;;;;;;;;;;;;5078577;28;20025;-56
2023/01/03 05:04:37;;;;;;;;;;;;;;;;;;5083421;28;19955;-55
2023/01/03 05:07:03;;;;;;;;;;;;;;;;;;5077966;28;20348;-55
2023/01/03 05:09:29;;;;;;;;;;;;;;;;;;5081245;28;20420;-57
2023/01/03 05:11:55;;;;;;;;;;;;;;;;;;5085114;28;20317;-56
2023/01/03 05:14:21;;;;;;;;;;;;;;;;;;5076199;28;20388;-57
2023/01/03 05:16:47;;;;;;;;;;;;;;;;;;5086662;28;19924;-57
2023/01/03 05:19:13;;;;;;;;;;;;;;;;;;5088172;28;20000;-56
2023/01/03 05:27:08;;;;;;;;;;;;;;;;;;5082994;28;19931;-57
2023/01/03 05:29:34;;;;;;;;;;;;;;;;;;5086930;28;19924;-57
2023/01/03 05:32:00;;;;;;;;;;;;;;;;;;5083227;28;19924;-57
2023/01/03 05:34:26;;;;;;;;;;;;;;;;;;5087810;28;19924;-57
2023/01/03 05:36:52;;;;;;;;;;;;;;;;;;5080660;28;19932;-57
2023/01/03 05:39:18;;;;;;;;;;;;;;;;;;5086932;28;19923;-57
2023/01/03 05:41:59;;;;;;;;;;;;;;;;;;5080457;28;19931;-56
2023/01/03 05:44:25;;;;;;;;;;;;;;;;;;5084274;28;19976;-57
2023/01/03 05:46:51;;;;;;;;;;;;;;;;;;5084415;28;20003;-56
2023/01/03 05:49:17;;;;;;;;;;;;;;;;;;5084018;28;19945;-57
2023/01/03 05:51:43;;;;;;;;;;;;;;;;;;5084966;28;19928;-57
2023/01/03 05:54:09;;;;;;;;;;;;;;;;;;5081767;28;19924;-56
2023/01/03 05:56:35;;;;;;;;;;;;;;;;;;5085676;28;20026;-57
2023/01/03 05:59:01;;;;;;;;;;;;;;;;;;5084043;28;20106;-57
2023/01/03 06:01:27;;;;;;;;;;;;;;;;;;5085252;28;19923;-57
2023/01/03 06:03:54;;;;;;;;;;;;;;;;;;5082829;28;20529;-57
2023/01/03 06:06:20;;;;;;;;;;;;;;;;;;5082750;28;20373;-57
2023/01/03 06:08:46;;;;;;;;;;;;;;;;;;5084301;28;19924;-57
2023/01/03 06:11:12;;;;;;;;;;;;;;;;;;5083887;28;20401;-55
2023/01/03 06:13:38;;;;;;;;;;;;;;;;;;5084912;28;20668;-57
2023/01/03 06:18:49;;;;;;;;;;;;;;;;;;5081984;28;19939;-55
2023/01/03 06:21:15;;;;;;;;;;;;;;;;;;5079036;28;20026;-57
2023/01/03 06:23:41;;;;;;;;;;;;;;;;;;5084831;28;19963;-57
2023/01/03 06:26:07;;;;;;;;;;;;;;;;;;5068442;28;19932;-57
2023/01/03 06:28:33;;;;;;;;;;;;;;;;;;5076372;28;19928;-54
2023/01/03 06:30:59;;;;;;;;;;;;;;;;;;5084601;28;19985;-57
2023/01/03 06:33:25;;;;;;;;;;;;;;;;;;5083533;28;19968;-58
2023/01/03 06:35:51;;;;;;;;;;;;;;;;;;5081146;28;20025;-59
2023/01/03 06:38:17;;;;;;;;;;;;;;;;;;5080899;28;19946;-58
2023/01/03 06:40:43;;;;;;;;;;;;;;;;;;5084837;28;19925;-59
2023/01/03 06:43:09;;;;;;;;;;;;;;;;;;5090329;28;20427;-58
2023/01/03 06:53:50;;;;;;;;;;;;;;;;;;5069437;28;19994;-58
2023/01/03 06:56:17;;;;;;;;;;;;;;;;;;5068492;28;20598;-59
2023/01/03 06:58:43;;;;;;;;;;;;;;;;;;5077343;28;19920;-58
2023/01/03 07:01:09;;;;;;;;;;;;;;;;;;5067363;28;19935;-59
2023/01/03 07:03:35;;;;;;;;;;;;;;;;;;5070248;28;19924;-59
2023/01/03 07:06:01;;;;;;;;;;;;;;;;;;5068149;28;20433;-58
2023/01/03 07:08:27;;;;;;;;;;;;;;;;;;5066181;28;19932;-57
2023/01/03 07:10:53;;;;;;;;;;;;;;;;;;5075251;28;19924;-57
2023/01/03 07:16:03;;;;;;;;;;;;;;;;;;5074069;28;19991;-57
2023/01/03 07:18:29;;;;;;;;;;;;;;;;;;5069669;28;20381;-55
2023/01/03 07:20:55;;;;;;;;;;;;;;;;;;5079167;28;19928;-56
2023/01/03 07:23:21;;;;;;;;;;;;;;;;;;5075725;28;19969;-56
2023/01/03 07:25:47;;;;;;;;;;;;;;;;;;5077868;28;19924;-56
2023/01/03 07:28:13;;;;;;;;;;;;;;;;;;5072511;28;19924;-56
2023/01/03 07:30:39;;;;;;;;;;;;;;;;;;5073357;28;19940;-56
2023/01/03 07:33:05;;;;;;;;;;;;;;;;;;5068836;28;20011;-56
2023/01/03 07:35:32;;;;;;;;;;;;;;;;;;5067521;28;19928;-55
2023/01/03 07:37:58;;;;;;;;;;;;;;;;;;5068499;28;19931;-56
2023/01/03 07:40:24;;;;;;;;;;;;;;;;;;5073855;28;19924;-56
2023/01/03 07:45:35;;;;;;;;;;;;;;;;;;5096025;28;19931;-57
2023/01/03 07:48:01;;;;;;;;;;;;;;;;;;5083177;28;19923;-54
2023/01/03 07:50:27;;;;;;;;;;;;;;;;;;5091747;28;19925;-56
2023/01/03 07:52:53;;;;;;;;;;;;;;;;;;5088495;28;19968;-56
2023/01/03 07:55:19;;;;;;;;;;;;;;;;;;5071218;28;20809;-55
2023/01/03 07:57:45;;;;;;;;;;;;;;;;;;5088547;28;19923;-56
2023/01/03 08:00:11;;;;;;;;;;;;;;;;;;5086355;28;20331;-56
2023/01/03 08:02:37;;;;;;;;;;;;;;;;;;5085957;28;19977;-57
2023/01/03 08:05:03;;;;;;;;;;;;;;;;;;5091098;28;20005;-57
2023/01/03 08:07:29;;;;;;;;;;;;;;;;;;5086457;28;20035;-54
2023/01/03 08:15:24;;;;;;;;;;;;;;;;;;5068332;28;20003;-56
2023/01/03 08:17:50;;;;;;;;;;;;;;;;;;5065739;28;19924;-55
2023/01/03 08:20:16;;;;;;;;;;;;;;;;;;5080907;28;20370;-53
2023/01/03 08:22:42;;;;;;;;;;;;;;;;;;5084741;28;19966;-56
2023/01/03 08:25:08;;;;;;;;;;;;;;;;;;5079202;28;20003;-55
2023/01/03 08:27:34;;;;;;;;;;;;;;;;;;5084187;28;20312;-55
2023/01/03 08:30:00;;;;;;;;;;;;;;;;;;5082345;28;19931;-55
2023/01/03 08:32:26;;;;;;;;;;;;;;;;;;5084197;28;20601;-56
2023/01/03 08:34:53;;;;;;;;;;;;;;;;;;5083252;28;20368;-56
2023/01/03 08:37:19;;;;;;;;;;;;;;;;;;5081657;28;19932;-56
2023/01/03 08:39:45;;;;;;;;;;;;;;;;;;5084196;28;19931;-54
2023/01/03 08:42:11;;;;;;;;;;;;;;;;;;5081494;28;20517;-55
2023/01/03 08:44:37;;;;;;;;;;;;;;;;;;5083924;28;20239;-56
2023/01/03 08:47:03;;;;;;;;;;;;;;;;;;5085921;28;19924;-57
2023/01/03 08:49:29;;;;;;;;;;;;;;;;;;5087302;28;19956;-54
2023/01/03 08:51:55;;;;;;;;;;;;;;;;;;5089837;28;20327;-57
2023/01/03 08:54:21;;;;;;;;;;;;;;;;;;5090364;28;19967;-56
2023/01/03 08:56:47;;;;;;;;;;;;;;;;;;5089866;28;19924;-56
2023/01/03 08:59:13;;;;;;;;;;;;;;;;;;5089855;28;19931;-57
2023/01/03 09:01:39;;;;;;;;;;;;;;;;;;5089116;28;19932;-56
2023/01/03 09:04:05;;;;;;;;;;;;;;;;;;5067591;28;19940;-57
2023/01/03 09:06:31;;;;;;;;;;;;;;;;;;5092078;28;19924;-55
2023/01/03 09:08:57;;;;;;;;;;;;;;;;;;5092405;28;20320;-56
2023/01/03 09:11:23;;;;;;;;;;;;;;;;;;5087889;28;19924;-56
2023/01/03 09:13:50;;;;;;;;;;;;;;;;;;5090325;28;19934;-56
2023/01/03 09:16:16;;;;;;;;;;;;;;;;;;5086091;28;19924;-57
2023/01/03 09:18:42;;;;;;;;;;;;;;;;;;5095400;28;19966;-55
2023/01/03 09:21:08;;;;;;;;;;;;;;;;;;5093734;28;19932;-57
2023/01/03 09:23:34;;;;;;;;;;;;;;;;;;5094809;28;20362;-56
2023/01/03 09:26:00;;;;;;;;;;;;;;;;;;5100365;28;19927;-55
2023/01/03 09:28:26;;;;;;;;;;;;;;;;;;5090248;28;19931;-54
2023/01/03 09:30:52;;;;;;;;;;;;;;;;;;5088321;28;20786;-56
2023/01/03 09:33:18;;;;;;;;;;;;;;;;;;5101452;28;19971;-56
2023/01/03 09:35:44;;;;;;;;;;;;;;;;;;5088046;28;19924;-57
2023/01/03 09:38:10;;;;;;;;;;;;;;;;;;5088876;28;19985;-55
2023/01/03 09:40:36;;;;;;;;;;;;;;;;;;5088718;28;19928;-57
2023/01/03 09:43:12;;;;;;;;;;;;;;;;;;5088210;28;19930;-57
2023/01/03 09:45:38;;;;;;;;;;;;;;;;;;5086384;28;20021;-56
2023/01/03 09:48:04;;;;;;;;;;;;;;;;;;5095983;28;19924;-57
2023/01/03 09:50:30;;;;;;;;;;;;;;;;;;5087432;28;20369;-55
2023/01/03 10:04:04;;;;;;;;;;;;;;;;;;5089187;28;19932;-55
2023/01/03 10:06:30;;;;;;;;;;;;;;;;;;5090850;28;19931;-56
2023/01/03 10:08:56;;;;;;;;;;;;;;;;;;5083185;28;19924;-54
2023/01/03 10:11:22;;;;;;;;;;;;;;;;;;5087178;28;19931;-56
2023/01/03 10:13:48;;;;;;;;;;;;;;;;;;5082783;28;20003;-55
2023/01/03 10:16:14;;;;;;;;;;;;;;;;;;5081649;28;20003;-53
2023/01/03 10:18:40;;;;;;;;;;;;;;;;;;5087222;28;20360;-56
2023/01/03 10:21:06;;;;;;;;;;;;;;;;;;5083437;28;19976;-56
2023/01/03 10:23:32;;;;;;;;;;;;;;;;;;5085809;28;19925;-56
2023/01/03 10:25:58;;;;;;;;;;;;;;;;;;5084658;28;19972;-56
2023/01/03 10:28:24;;;;;;;;;;;;;;;;;;5084490;28;19928;-56
2023/01/03 10:30:50;;;;;;;;;;;;;;;;;;5082661;28;19928;-56
2023/01/03 10:33:17;;;;;;;;;;;;;;;;;;5082850;28;19924;-55
2023/01/03 10:35:43;;;;;;;;;;;;;;;;;;5078593;28;19949;-56
2023/01/03 10:38:09;;;;;;;;;;;;;;;;;;5082121;28;20018;-57
2023/01/03 10:40:35;;;;;;;;;;;;;;;;;;5086040;28;20664;-56
2023/01/03 10:43:01;;;;;;;;;;;;;;;;;;5083622;28;19920;-53
2023/01/03 10:45:27;;;;;;;;;;;;;;;;;;5084802;28;20306;-53
2023/01/03 10:47:53;;;;;;;;;;;;;;;;;;5083491;28;19931;-51
2023/01/03 10:50:19;;;;;;;;;;;;;;;;;;5082258;28;19932;-56
2023/01/03 10:52:45;;;;;;;;;;;;;;;;;;5086665;28;19924;-55
2023/01/03 10:55:11;;;;;;;;;;;;;;;;;;5083014;28;19994;-56
2023/01/03 10:57:38;;;;;;;;;;;;;;;;;;5086202;28;20019;-55
2023/01/03 11:00:05;;;;;;;;;;;;;;;;;;5078431;28;19977;-51
2023/01/03 11:02:32;;;;;;;;;;;;;;;;;;5083647;28;20331;-56
2023/01/03 11:04:58;;;;;;;;;;;;;;;;;;5082217;28;20416;-56
2023/01/03 11:07:24;;;;;;;;;;;;;;;;;;5082764;28;19924;-56
2023/01/03 11:09:50;;;;;;;;;;;;;;;;;;5086268;28;19924;-54
2023/01/03 11:12:16;;;;;;;;;;;;;;;;;;5082961;28;19932;-55
2023/01/03 11:14:42;;;;;;;;;;;;;;;;;;5084698;28;19932;-56
2023/01/03 11:17:08;;;;;;;;;;;;;;;;;;5082400;28;20551;-55
2023/01/03 11:19:34;;;;;;;;;;;;;;;;;;5081657;28;20432;-53
2023/01/03 11:22:01;;;;;;;;;;;;;;;;;;5085431;28;20027;-56
2023/01/03 11:24:27;;;;;;;;;;;;;;;;;;5082913;28;19924;-55
2023/01/03 11:26:53;;;;;;;;;;;;;;;;;;5083364;28;19924;-56
2023/01/03 11:29:19;;;;;;;;;;;;;;;;;;5085987;28;19935;-55
2023/01/03 11:31:45;;;;;;;;;;;;;;;;;;5080644;28;19978;-56
2023/01/03 11:34:11;;;;;;;;;;;;;;;;;;5084864;28;19928;-55
2023/01/03 11:36:37;;;;;;;;;;;;;;;;;;5079067;28;20325;-56
2023/01/03 11:39:03;;;;;;;;;;;;;;;;;;5084885;28;19928;-56
2023/01/03 11:41:29;;;;;;;;;;;;;;;;;;5080636;28;19980;-54
2023/01/03 11:43:55;;;;;;;;;;;;;;;;;;5082758;28;19928;-56
2023/01/03 11:46:21;;;;;;;;;;;;;;;;;;5084965;28;19920;-55
2023/01/03 11:48:47;;;;;;;;;;;;;;;;;;5080472;28;19939;-55
2023/01/03 11:51:13;;;;;;;;;;;;;;;;;;5084655;28;19927;-56
2023/01/03 11:53:39;;;;;;;;;;;;;;;;;;5079330;28;20407;-56
2023/01/03 11:56:05;;;;;;;;;;;;;;;;;;5078761;28;19969;-56
2023/01/03 11:58:32;;;;;;;;;;;;;;;;;;5080219;28;19980;-52
2023/01/03 12:00:59;;;;;;;;;;;;;;;;;;5082475;28;19928;-56
2023/01/03 12:03:26;;;;;;;;;;;;;;;;;;5086095;28;20640;-55
2023/01/03 12:05:52;;;;;;;;;;;;;;;;;;5079638;28;19924;-56
2023/01/03 12:08:18;;;;;;;;;;;;;;;;;;5084541;28;19931;-55
2023/01/03 12:10:44;;;;;;;;;;;;;;;;;;5078901;28;20580;-55
2023/01/03 12:13:10;;;;;;;;;;;;;;;;;;5084920;28;19981;-56
2023/01/03 12:15:36;;;;;;;;;;;;;;;;;;5080597;28;19932;-53
2023/01/03 12:18:02;;;;;;;;;;;;;;;;;;5081014;28;20443;-55
2023/01/03 12:20:28;;;;;;;;;;;;;;;;;;5084863;28;19924;-56
2023/01/03 12:22:54;;;;;;;;;;;;;;;;;;5082069;28;19924;-55
2023/01/03 12:25:21;;;;;;;;;;;;;;;;;;5085154;28;19928;-56
2023/01/03 12:27:47;;;;;;;;;;;;;;;;;;5086361;28;20301;-53
2023/01/03 12:30:13;;;;;;;;;;;;;;;;;;5086691;28;20315;-56
2023/01/03 12:32:39;;;;;;;;;;;;;;;;;;5088751;28;20434;-55
2023/01/03 12:35:05;;;;;;;;;;;;;;;;;;5092493;28;19930;-54
2023/01/03 12:37:31;;;;;;;;;;;;;;;;;;5091718;28;19931;-56
2023/01/03 12:39:58;;;;;;;;;;;;;;;;;;5091468;28;19924;-53
2023/01/03 12:42:24;;;;;;;;;;;;;;;;;;5094713;28;19969;-54
2023/01/03 12:44:50;;;;;;;;;;;;;;;;;;5076397;28;19928;-56
2023/01/03 12:47:16;;;;;;;;;;;;;;;;;;5088528;28;19965;-53
2023/01/03 12:49:42;;;;;;;;;;;;;;;;;;5076827;28;20625;-55
2023/01/03 12:52:08;;;;;;;;;;;;;;;;;;5093034;28;20051;-56
2023/01/03 12:54:34;;;;;;;;;;;;;;;;;;5070041;28;20023;-56
2023/01/03 12:57:00;;;;;;;;;;;;;;;;;;5080731;28;20014;-55
2023/01/03 12:59:26;;;;;;;;;;;;;;;;;;5070003;28;20007;-55
2023/01/03 13:01:53;;;;;;;;;;;;;;;;;;5078310;28;20384;-57
2023/01/03 13:04:19;;;;;;;;;;;;;;;;;;5076246;28;20085;-56
2023/01/03 13:06:45;;;;;;;;;;;;;;;;;;5092735;28;20450;-55
2023/01/03 13:09:11;;;;;;;;;;;;;;;;;;5098047;28;19928;-56
2023/01/03 13:11:37;;;;;;;;;;;;;;;;;;5098430;28;19973;-56
2023/01/03 13:14:03;;;;;;;;;;;;;;;;;;5092062;28;19947;-56
2023/01/03 13:16:29;;;;;;;;;;;;;;;;;;5082870;28;19925;-52
2023/01/03 13:18:55;;;;;;;;;;;;;;;;;;5080132;28;19920;-54
2023/01/03 13:21:21;;;;;;;;;;;;;;;;;;5095701;28;19928;-51
2023/01/03 13:23:47;;;;;;;;;;;;;;;;;;5093289;28;19928;-56
2023/01/03 13:26:13;;;;;;;;;;;;;;;;;;5101826;28;19977;-55
2023/01/03 13:28:39;;;;;;;;;;;;;;;;;;5095920;28;19924;-52
2023/01/03 13:31:05;;;;;;;;;;;;;;;;;;5084172;28;20372;-54
2023/01/03 13:33:31;;;;;;;;;;;;;;;;;;5096677;28;19978;-55
2023/01/03 13:35:57;;;;;;;;;;;;;;;;;;5099385;28;19923;-56
2023/01/03 13:38:23;;;;;;;;;;;;;;;;;;5084002;28;19988;-55
2023/01/03 13:40:49;;;;;;;;;;;;;;;;;;5081078;28;19935;-56
2023/01/03 13:43:15;;;;;;;;;;;;;;;;;;5077469;28;19925;-56
2023/01/03 13:45:41;;;;;;;;;;;;;;;;;;5070009;28;19924;-54
2023/01/03 13:48:07;;;;;;;;;;;;;;;;;;5078727;28;19930;-54
2023/01/03 13:50:33;;;;;;;;;;;;;;;;;;5081059;28;20296;-57
2023/01/03 13:53:00;;;;;;;;;;;;;;;;;;5076022;28;20630;-56
2023/01/03 13:55:26;;;;;;;;;;;;;;;;;;5081575;28;19924;-56
2023/01/03 13:57:52;;;;;;;;;;;;;;;;;;5075787;28;19969;-54
2023/01/03 14:00:18;;;;;;;;;;;;;;;;;;5086301;28;19928;-56
2023/01/03 14:02:44;;;;;;;;;;;;;;;;;;5071305;28;19932;-56
2023/01/03 14:05:20;;;;;;;;;;;;;;;;;;5071081;28;19928;-55
2023/01/03 14:07:46;;;;;;;;;;;;;;;;;;5077683;28;20408;-53
2023/01/03 14:10:12;;;;;;;;;;;;;;;;;;5081826;28;20008;-56
2023/01/03 14:12:38;;;;;;;;;;;;;;;;;;5081363;28;19986;-56
2023/01/03 14:15:04;;;;;;;;;;;;;;;;;;5074131;28;20515;-55
2023/01/03 14:17:31;;;;;;;;;;;;;;;;;;5083470;28;19932;-55
2023/01/03 14:19:57;;;;;;;;;;;;;;;;;;5079830;28;19932;-56
2023/01/03 14:22:23;;;;;;;;;;;;;;;;;;5075860;28;19924;-56
2023/01/03 14:24:49;;;;;;;;;;;;;;;;;;5075037;28;19928;-57
2023/01/03 14:27:15;;;;;;;;;;;;;;;;;;5071458;28;19947;-56
2023/01/03 14:29:41;;;;;;;;;;;;;;;;;;5075307;28;19947;-56
2023/01/03 14:32:07;;;;;;;;;;;;;;;;;;5071538;28;19931;-56
2023/01/03 14:34:33;;;;;;;;;;;;;;;;;;5079532;28;20328;-55
2023/01/03 14:36:59;;;;;;;;;;;;;;;;;;5085363;28;19931;-56
2023/01/03 14:39:31;;;;;;;;;;;;;;;;;;5083193;28;19925;-56
2023/01/03 14:41:57;;;;;;;;;;;;;;;;;;5082705;28;19924;-53
2023/01/03 14:44:23;;;;;;;;;;;;;;;;;;5088349;28;19928;-57
2023/01/03 14:46:51;;;;;;;;;;;;;;;;;;5073074;28;19928;-54
2023/01/03 14:49:17;;;;;;;;;;;;;;;;;;5067230;28;19928;-55
2023/01/03 14:51:43;;;;;;;;;;;;;;;;;;5088353;28;19939;-56
2023/01/03 14:54:09;;;;;;;;;;;;;;;;;;5070965;28;19924;-54
2023/01/03 14:56:35;;;;;;;;;;;;;;;;;;5083304;28;20385;-56
2023/01/03 14:59:02;;;;;;;;;;;;;;;;;;5073073;28;19977;-56
2023/01/03 15:01:29;;;;;;;;;;;;;;;;;;5076864;28;19943;-56
2023/01/03 15:03:55;;;;;;;;;;;;;;;;;;5086901;28;20369;-55
2023/01/03 15:06:21;;;;;;;;;;;;;;;;;;5074229;28;19924;-56
2023/01/03 15:08:47;;;;;;;;;;;;;;;;;;5076150;28;19932;-56
2023/01/03 15:11:13;;;;;;;;;;;;;;;;;;5076765;28;19932;-56
2023/01/03 15:13:39;;;;;;;;;;;;;;;;;;5068892;28;20011;-55
2023/01/03 15:16:05;;;;;;;;;;;;;;;;;;5072596;28;20296;-55
2023/01/03 15:18:31;;;;;;;;;;;;;;;;;;5070428;28;20389;-55
2023/01/03 15:20:57;;;;;;;;;;;;;;;;;;5067143;28;19976;-56
2023/01/03 15:23:23;;;;;;;;;;;;;;;;;;5078401;28;19960;-55
2023/01/03 15:25:51;;;;;;;;;;;;;;;;;;5073555;28;19938;-55
2023/01/03 15:28:17;;;;;;;;;;;;;;;;;;5083301;28;19928;-54
2023/01/03 15:30:43;;;;;;;;;;;;;;;;;;5076280;28;19943;-52
2023/01/03 15:33:09;;;;;;;;;;;;;;;;;;5075117;28;20544;-55
2023/01/03 15:35:36;;;;;;;;;;;;;;;;;;5069140;28;19977;-55
2023/01/03 15:38:02;;;;;;;;;;;;;;;;;;5067263;28;20511;-56
2023/01/03 15:40:28;;;;;;;;;;;;;;;;;;5075897;28;19976;-56
2023/01/03 15:45:38;;;;;;;;;;;;;;;;;;5074735;28;20329;-53
2023/01/03 15:48:04;;;;;;;;;;;;;;;;;;5071947;28;19970;-53
2023/01/03 15:50:30;;;;;;;;;;;;;;;;;;5068889;28;19940;-56
2023/01/03 15:52:56;;;;;;;;;;;;;;;;;;5071517;28;19924;-56
2023/01/03 15:55:22;;;;;;;;;;;;;;;;;;5077726;28;19946;-56
2023/01/03 15:57:48;;;;;;;;;;;;;;;;;;5074882;28;20699;-55
2023/01/03 16:00:14;;;;;;;;;;;;;;;;;;5068942;28;20461;-54
2023/01/03 16:02:40;;;;;;;;;;;;;;;;;;5078261;28;20021;-56
2023/01/03 16:05:07;;;;;;;;;;;;;;;;;;5075416;28;20019;-56
2023/01/03 16:07:35;;;;;;;;;;;;;;;;;;5072845;28;19986;-55
2023/01/03 16:10:01;;;;;;;;;;;;;;;;;;5071373;28;20019;-56
2023/01/03 16:12:27;;;;;;;;;;;;;;;;;;5079683;28;20047;-55
2023/01/03 16:14:53;;;;;;;;;;;;;;;;;;5068974;28;20034;-56
2023/01/03 16:17:19;;;;;;;;;;;;;;;;;;5072703;28;19950;-56
2023/01/03 16:19:45;;;;;;;;;;;;;;;;;;5069834;28;20599;-55
2023/01/03 16:22:11;;;;;;;;;;;;;;;;;;5076644;28;19977;-55
2023/01/03 16:24:37;;;;;;;;;;;;;;;;;;5074807;28;20340;-54
2023/01/03 16:27:03;;;;;;;;;;;;;;;;;;5076444;28;20615;-56
2023/01/03 16:29:29;;;;;;;;;;;;;;;;;;5075459;28;19993;-55
2023/01/03 16:31:55;;;;;;;;;;;;;;;;;;5080033;28;20022;-55
2023/01/03 16:34:21;;;;;;;;;;;;;;;;;;5075158;28;20056;-56
2023/01/03 16:36:47;;;;;;;;;;;;;;;;;;5074944;28;19931;-55
2023/01/03 16:39:13;;;;;;;;;;;;;;;;;;5076166;28;19982;-54
2023/01/03 16:41:39;;;;;;;;;;;;;;;;;;5079523;28;20013;-56
2023/01/03 16:44:05;;;;;;;;;;;;;;;;;;5072596;28;20014;-55
2023/01/03 16:46:32;;;;;;;;;;;;;;;;;;5069636;28;19928;-56
2023/01/03 16:48:58;;;;;;;;;;;;;;;;;;5072618;28;19931;-55
2023/01/03 16:51:24;;;;;;;;;;;;;;;;;;5076039;28;20014;-56
2023/01/03 16:53:50;;;;;;;;;;;;;;;;;;5074329;28;20104;-56
2023/01/03 16:56:16;;;;;;;;;;;;;;;;;;5071408;28;19929;-55
2023/01/03 16:58:42;;;;;;;;;;;;;;;;;;5072517;28;20511;-55
2023/01/03 17:01:08;;;;;;;;;;;;;;;;;;5074238;28;20414;-54
2023/01/03 17:03:34;;;;;;;;;;;;;;;;;;5076938;28;20632;-56
2023/01/03 17:06:00;;;;;;;;;;;;;;;;;;5074963;28;20320;-54
2023/01/03 17:08:26;;;;;;;;;;;;;;;;;;5075699;28;19943;-55
2023/01/03 17:10:52;;;;;;;;;;;;;;;;;;5069844;28;19929;-56
2023/01/03 17:13:18;;;;;;;;;;;;;;;;;;5084018;28;19977;-54
2023/01/03 17:15:44;;;;;;;;;;;;;;;;;;5071145;28;19998;-55
2023/01/03 17:18:10;;;;;;;;;;;;;;;;;;5072327;28;20381;-54
2023/01/03 17:23:26;;;;;;;;;;;;;;;;;;5078102;28;19967;-55
2023/01/03 17:25:54;;;;;;;;;;;;;;;;;;5071591;28;20374;-55
2023/01/03 17:28:20;;;;;;;;;;;;;;;;;;5078145;28;19932;-55
2023/01/03 17:30:46;;;;;;;;;;;;;;;;;;5073545;28;19931;-56
2023/01/03 17:33:13;;;;;;;;;;;;;;;;;;5075065;28;19932;-56
2023/01/03 17:35:39;;;;;;;;;;;;;;;;;;5072914;28;19971;-56
2023/01/03 17:38:07;;;;;;;;;;;;;;;;;;5083589;28;19924;-55
2023/01/03 17:40:33;;;;;;;;;;;;;;;;;;5069621;28;19925;-56
2023/01/03 17:42:59;;;;;;;;;;;;;;;;;;5078050;28;19932;-54
2023/01/03 17:50:56;;;;;;;;;;;;;;;;;;5071436;28;20556;-55
2023/01/03 17:53:22;;;;;;;;;;;;;;;;;;5087581;28;19951;-56